createdAt,value
2023-03-16T00:00:11.771Z,78.65
2023-03-16T00:01:11.736Z,78.65
2023-03-16T00:02:11.894Z,78.55
2023-03-16T00:03:11.770Z,78.65
2023-03-16T00:04:11.729Z,78.34
2023-03-16T00:05:11.694Z,78.86
2023-03-16T00:06:11.692Z,78.65
2023-03-16T00:07:11.673Z,78.55
2023-03-16T00:08:11.666Z,79.38
2023-03-16T00:09:11.681Z,78.65
2023-03-16T00:10:11.652Z,78.86
2023-03-16T00:11:11.635Z,78.34
2023-03-16T00:12:11.629Z,78.65
2023-03-16T00:13:11.613Z,78.65
2023-03-16T00:14:11.635Z,78.23
2023-03-16T00:15:11.590Z,78.23
2023-03-16T00:16:11.635Z,78.34
2023-03-16T00:17:11.574Z,78.38
2023-03-16T00:18:11.566Z,78.38
2023-03-16T00:19:11.589Z,78.44
2023-03-16T00:20:11.539Z,79.10
2023-03-16T00:21:11.531Z,78.69
2023-03-16T00:22:11.532Z,78.48
2023-03-16T00:23:11.511Z,78.79
2023-03-16T00:24:11.515Z,78.48
2023-03-16T00:25:11.486Z,78.58
2023-03-16T00:26:11.478Z,78.34
2023-03-16T00:27:11.462Z,78.38
2023-03-16T00:28:11.456Z,78.48
2023-03-16T00:29:11.455Z,78.65
2023-03-16T00:30:11.429Z,78.79
2023-03-16T00:31:11.417Z,78.65
2023-03-16T00:32:11.414Z,78.58
2023-03-16T00:33:11.398Z,78.38
2023-03-16T00:34:11.408Z,78.58
2023-03-16T00:35:11.390Z,78.48
2023-03-16T00:36:11.482Z,77.75
2023-03-16T00:37:11.428Z,78.69
2023-03-16T00:38:11.344Z,78.06
2023-03-16T00:39:11.349Z,78.17
2023-03-16T00:40:11.323Z,78.06
2023-03-16T00:41:11.326Z,78.06
2023-03-16T00:42:11.302Z,78.06
2023-03-16T00:43:11.286Z,78.38
2023-03-16T00:44:11.305Z,78.27
2023-03-16T00:45:11.266Z,77.96
2023-03-16T00:46:11.366Z,78.27
2023-03-16T00:47:11.244Z,78.27
2023-03-16T00:48:11.235Z,78.38
2023-03-16T00:49:11.238Z,78.27
2023-03-16T00:50:11.223Z,78.79
2023-03-16T00:51:11.228Z,78.48
2023-03-16T00:52:11.206Z,78.38
2023-03-16T00:53:11.184Z,78.48
2023-03-16T00:54:11.204Z,78.48
2023-03-16T00:55:11.188Z,78.41
2023-03-16T00:56:11.156Z,78.38
2023-03-16T00:57:11.139Z,78.58
2023-03-16T00:58:11.128Z,78.58
2023-03-16T00:59:11.147Z,78.41
2023-03-16T01:00:11.110Z,78.62
2023-03-16T01:01:11.182Z,78.00
2023-03-16T01:02:11.139Z,78.17
2023-03-16T01:03:11.129Z,78.00
2023-03-16T01:04:11.103Z,78.10
2023-03-16T01:05:11.096Z,78.31
2023-03-16T01:06:11.057Z,78.72
2023-03-16T01:07:11.056Z,78.62
2023-03-16T01:08:11.030Z,78.52
2023-03-16T01:09:11.029Z,78.31
2023-03-16T01:10:11.017Z,77.89
2023-03-16T01:11:10.999Z,78.72
2023-03-16T01:12:10.989Z,78.41
2023-03-16T01:13:10.972Z,78.62
2023-03-16T01:14:10.991Z,78.72
2023-03-16T01:15:11.042Z,78.41
2023-03-16T01:16:10.959Z,78.52
2023-03-16T01:17:11.013Z,78.41
2023-03-16T01:18:10.929Z,78.83
2023-03-16T01:19:10.964Z,78.72
2023-03-16T01:20:10.918Z,78.52
2023-03-16T01:21:10.907Z,78.10
2023-03-16T01:22:10.883Z,78.20
2023-03-16T01:23:10.892Z,77.79
2023-03-16T01:24:10.882Z,78.41
2023-03-16T01:25:10.853Z,78.72
2023-03-16T01:26:10.894Z,78.52
2023-03-16T01:27:10.823Z,78.52
2023-03-16T01:28:10.823Z,78.41
2023-03-16T01:29:10.820Z,78.62
2023-03-16T01:30:10.798Z,78.62
2023-03-16T01:31:10.829Z,78.31
2023-03-16T01:32:10.796Z,78.41
2023-03-16T01:33:10.768Z,77.89
2023-03-16T01:34:10.767Z,78.20
2023-03-16T01:35:10.747Z,78.10
2023-03-16T01:36:10.748Z,78.00
2023-03-16T01:37:10.728Z,78.20
2023-03-16T01:38:10.718Z,78.00
2023-03-16T01:39:10.772Z,77.48
2023-03-16T01:40:10.688Z,78.31
2023-03-16T01:41:10.683Z,78.00
2023-03-16T01:42:10.679Z,77.79
2023-03-16T01:43:10.658Z,77.89
2023-03-16T01:44:10.688Z,78.00
2023-03-16T01:45:10.656Z,78.20
2023-03-16T01:46:10.727Z,78.41
2023-03-16T01:47:10.628Z,78.45
2023-03-16T01:48:10.618Z,78.45
2023-03-16T01:49:10.597Z,78.45
2023-03-16T01:50:10.618Z,78.55
2023-03-16T01:51:10.589Z,78.34
2023-03-16T01:52:10.564Z,78.45
2023-03-16T01:53:10.561Z,78.45
2023-03-16T01:54:10.561Z,78.14
2023-03-16T01:55:10.558Z,78.55
2023-03-16T01:56:10.523Z,78.45
2023-03-16T01:57:10.521Z,78.03
2023-03-16T01:58:10.503Z,78.34
2023-03-16T01:59:10.516Z,78.55
2023-03-16T02:00:10.503Z,78.45
2023-03-16T02:01:10.556Z,78.45
2023-03-16T02:02:10.476Z,78.66
2023-03-16T02:03:10.469Z,78.66
2023-03-16T02:04:10.512Z,78.45
2023-03-16T02:05:10.479Z,78.34
2023-03-16T02:06:10.435Z,78.45
2023-03-16T02:07:10.425Z,78.24
2023-03-16T02:08:10.434Z,78.14
2023-03-16T02:09:10.413Z,78.34
2023-03-16T02:10:10.462Z,78.14
2023-03-16T02:11:10.433Z,78.14
2023-03-16T02:12:10.390Z,78.10
2023-03-16T02:13:10.349Z,77.89
2023-03-16T02:14:10.348Z,77.72
2023-03-16T02:15:10.348Z,78.31
2023-03-16T02:16:10.430Z,77.40
2023-03-16T02:17:10.309Z,78.31
2023-03-16T02:18:10.289Z,77.48
2023-03-16T02:19:10.287Z,78.14
2023-03-16T02:20:10.290Z,77.83
2023-03-16T02:21:10.264Z,77.51
2023-03-16T02:22:10.272Z,77.51
2023-03-16T02:23:10.245Z,77.30
2023-03-16T02:24:10.243Z,77.61
2023-03-16T02:25:10.249Z,77.30
2023-03-16T02:26:10.221Z,77.30
2023-03-16T02:27:10.233Z,77.72
2023-03-16T02:28:10.196Z,77.61
2023-03-16T02:29:10.191Z,77.61
2023-03-16T02:30:10.214Z,77.93
2023-03-16T02:31:10.200Z,78.34
2023-03-16T02:32:10.165Z,78.34
2023-03-16T02:33:10.140Z,77.72
2023-03-16T02:34:10.134Z,77.51
2023-03-16T02:35:10.173Z,77.51
2023-03-16T02:36:10.131Z,77.83
2023-03-16T02:37:10.095Z,77.72
2023-03-16T02:38:10.085Z,77.40
2023-03-16T02:39:10.076Z,77.83
2023-03-16T02:40:10.086Z,78.07
2023-03-16T02:41:10.059Z,78.03
2023-03-16T02:42:10.039Z,78.28
2023-03-16T02:43:10.077Z,78.14
2023-03-16T02:44:10.024Z,78.28
2023-03-16T02:45:10.043Z,77.83
2023-03-16T02:46:10.025Z,77.72
2023-03-16T02:47:09.991Z,78.07
2023-03-16T02:48:09.995Z,78.07
2023-03-16T02:49:09.975Z,77.83
2023-03-16T02:50:10.007Z,77.93
2023-03-16T02:51:09.953Z,77.93
2023-03-16T02:52:09.933Z,78.03
2023-03-16T02:53:09.925Z,78.24
2023-03-16T02:54:09.917Z,78.14
2023-03-16T02:55:09.980Z,78.07
2023-03-16T02:56:09.901Z,78.34
2023-03-16T02:57:09.882Z,77.93
2023-03-16T02:58:09.889Z,78.03
2023-03-16T02:59:09.882Z,77.40
2023-03-16T03:00:09.884Z,77.61
2023-03-16T03:01:09.838Z,77.93
2023-03-16T03:02:11.266Z,77.30
2023-03-16T03:03:09.947Z,77.30
2023-03-16T03:04:09.809Z,77.61
2023-03-16T03:05:16.865Z,77.40
2023-03-16T03:06:09.783Z,77.34
2023-03-16T03:07:09.781Z,77.30
2023-03-16T03:08:09.762Z,77.34
2023-03-16T03:09:09.758Z,77.34
2023-03-16T03:10:09.754Z,77.44
2023-03-16T03:11:09.731Z,77.20
2023-03-16T03:12:09.737Z,77.20
2023-03-16T03:13:09.715Z,77.55
2023-03-16T03:14:09.698Z,77.44
2023-03-16T03:15:09.769Z,77.44
2023-03-16T03:16:09.746Z,77.34
2023-03-16T03:17:09.670Z,77.34
2023-03-16T03:18:09.662Z,77.34
2023-03-16T03:19:09.655Z,77.55
2023-03-16T03:20:09.651Z,77.37
2023-03-16T03:21:09.637Z,77.58
2023-03-16T03:22:09.615Z,78.10
2023-03-16T03:23:09.608Z,78.20
2023-03-16T03:24:09.663Z,78.20
2023-03-16T03:25:09.618Z,78.00
2023-03-16T03:26:09.611Z,78.20
2023-03-16T03:27:09.565Z,78.20
2023-03-16T03:28:09.688Z,78.42
2023-03-16T03:29:09.552Z,78.00
2023-03-16T03:30:09.543Z,78.10
2023-03-16T03:31:09.589Z,78.10
2023-03-16T03:32:09.508Z,78.20
2023-03-16T03:33:09.595Z,78.20
2023-03-16T03:34:09.500Z,78.10
2023-03-16T03:35:09.511Z,78.00
2023-03-16T03:36:09.466Z,78.10
2023-03-16T03:37:09.471Z,78.10
2023-03-16T03:38:09.461Z,78.31
2023-03-16T03:39:09.436Z,78.20
2023-03-16T03:40:09.439Z,78.73
2023-03-16T03:41:09.428Z,78.42
2023-03-16T03:42:09.405Z,78.20
2023-03-16T03:43:09.398Z,78.56
2023-03-16T03:44:09.390Z,78.77
2023-03-16T03:45:09.399Z,78.31
2023-03-16T03:46:09.482Z,78.34
2023-03-16T03:47:09.405Z,78.77
2023-03-16T03:48:09.344Z,78.66
2023-03-16T03:49:09.333Z,78.66
2023-03-16T03:50:09.342Z,78.56
2023-03-16T03:51:09.314Z,78.56
2023-03-16T03:52:09.305Z,78.56
2023-03-16T03:53:09.300Z,78.56
2023-03-16T03:54:09.285Z,78.34
2023-03-16T03:55:09.288Z,78.14
2023-03-16T03:56:09.266Z,78.03
2023-03-16T03:57:09.253Z,78.14
2023-03-16T03:58:09.241Z,78.03
2023-03-16T03:59:09.246Z,78.24
2023-03-16T04:00:09.213Z,78.03
2023-03-16T04:01:09.203Z,78.14
2023-03-16T04:02:09.315Z,78.97
2023-03-16T04:03:09.426Z,78.34
2023-03-16T04:04:09.208Z,78.03
2023-03-16T04:05:09.184Z,78.45
2023-03-16T04:06:09.151Z,78.56
2023-03-16T04:07:09.142Z,78.87
2023-03-16T04:08:09.131Z,79.01
2023-03-16T04:09:09.122Z,78.87
2023-03-16T04:10:09.122Z,78.77
2023-03-16T04:11:09.105Z,78.56
2023-03-16T04:12:09.085Z,78.66
2023-03-16T04:13:09.082Z,78.59
2023-03-16T04:14:09.068Z,78.80
2023-03-16T04:15:09.104Z,78.34
2023-03-16T04:16:09.058Z,78.97
2023-03-16T04:17:09.039Z,78.56
2023-03-16T04:18:09.021Z,79.18
2023-03-16T04:19:09.035Z,78.77
2023-03-16T04:20:09.013Z,79.18
2023-03-16T04:21:08.990Z,78.56
2023-03-16T04:22:08.992Z,78.77
2023-03-16T04:23:09.008Z,78.97
2023-03-16T04:24:08.959Z,78.56
2023-03-16T04:25:11.034Z,78.97
2023-03-16T04:26:08.945Z,78.77
2023-03-16T04:27:08.935Z,78.66
2023-03-16T04:28:08.918Z,78.87
2023-03-16T04:29:08.913Z,78.56
2023-03-16T04:30:08.904Z,78.24
2023-03-16T04:31:08.930Z,78.45
2023-03-16T04:32:08.875Z,77.93
2023-03-16T04:33:09.040Z,79.08
2023-03-16T04:34:08.852Z,78.97
2023-03-16T04:35:08.886Z,78.24
2023-03-16T04:36:08.861Z,78.03
2023-03-16T04:37:08.832Z,78.66
2023-03-16T04:38:08.810Z,78.45
2023-03-16T04:39:08.814Z,78.14
2023-03-16T04:40:10.871Z,78.24
2023-03-16T04:41:08.795Z,78.03
2023-03-16T04:42:08.801Z,78.28
2023-03-16T04:43:08.758Z,78.45
2023-03-16T04:44:08.750Z,78.14
2023-03-16T04:45:08.767Z,78.24
2023-03-16T04:46:08.775Z,78.66
2023-03-16T04:47:08.718Z,78.56
2023-03-16T04:48:08.713Z,78.66
2023-03-16T04:49:08.705Z,78.77
2023-03-16T04:50:08.705Z,78.56
2023-03-16T04:51:08.703Z,78.56
2023-03-16T04:52:08.669Z,78.87
2023-03-16T04:53:08.652Z,78.34
2023-03-16T04:54:08.654Z,78.66
2023-03-16T04:55:08.636Z,78.56
2023-03-16T04:56:08.674Z,78.56
2023-03-16T04:57:08.658Z,78.77
2023-03-16T04:58:08.599Z,78.56
2023-03-16T04:59:08.595Z,78.87
2023-03-16T05:00:08.676Z,78.77
2023-03-16T05:01:08.620Z,78.45
2023-03-16T05:02:08.584Z,78.14
2023-03-16T05:03:08.549Z,78.14
2023-03-16T05:04:09.406Z,78.10
2023-03-16T05:05:08.609Z,78.20
2023-03-16T05:06:08.530Z,78.24
2023-03-16T05:07:08.528Z,78.10
2023-03-16T05:08:08.505Z,78.14
2023-03-16T05:09:08.553Z,78.56
2023-03-16T05:10:08.474Z,78.56
2023-03-16T05:11:08.478Z,78.14
2023-03-16T05:12:08.460Z,78.66
2023-03-16T05:13:08.445Z,78.66
2023-03-16T05:14:08.507Z,78.24
2023-03-16T05:15:08.427Z,78.24
2023-03-16T05:16:08.473Z,78.14
2023-03-16T05:17:08.402Z,78.66
2023-03-16T05:18:08.392Z,78.66
2023-03-16T05:19:08.380Z,78.66
2023-03-16T05:20:08.495Z,78.34
2023-03-16T05:21:08.382Z,78.87
2023-03-16T05:22:08.354Z,78.97
2023-03-16T05:23:08.356Z,78.31
2023-03-16T05:24:08.334Z,78.34
2023-03-16T05:25:08.320Z,78.24
2023-03-16T05:26:08.333Z,78.56
2023-03-16T05:27:08.296Z,78.83
2023-03-16T05:28:08.287Z,78.73
2023-03-16T05:29:08.275Z,78.42
2023-03-16T05:30:08.270Z,78.52
2023-03-16T05:31:08.335Z,78.20
2023-03-16T05:32:08.244Z,77.86
2023-03-16T05:33:08.331Z,77.86
2023-03-16T05:34:08.222Z,77.75
2023-03-16T05:35:08.243Z,77.55
2023-03-16T05:36:08.350Z,77.86
2023-03-16T05:37:08.190Z,77.23
2023-03-16T05:38:08.180Z,76.68
2023-03-16T05:39:08.195Z,76.68
2023-03-16T05:40:08.160Z,76.57
2023-03-16T05:41:08.163Z,76.57
2023-03-16T05:42:08.141Z,76.47
2023-03-16T05:43:08.135Z,76.64
2023-03-16T05:44:08.141Z,76.64
2023-03-16T05:45:08.115Z,76.78
2023-03-16T05:46:08.156Z,76.54
2023-03-16T05:47:08.247Z,76.23
2023-03-16T05:48:08.080Z,76.33
2023-03-16T05:49:08.083Z,75.78
2023-03-16T05:50:08.054Z,75.78
2023-03-16T05:51:08.065Z,75.57
2023-03-16T05:52:08.037Z,75.36
2023-03-16T05:53:08.024Z,75.01
2023-03-16T05:54:08.018Z,74.91
2023-03-16T05:55:08.024Z,74.91
2023-03-16T05:56:08.034Z,74.26
2023-03-16T05:57:07.998Z,74.36
2023-03-16T05:58:07.971Z,74.26
2023-03-16T05:59:07.966Z,73.94
2023-03-16T06:00:07.950Z,74.11
2023-03-16T06:01:07.954Z,73.91
2023-03-16T06:02:07.931Z,73.39
2023-03-16T06:03:08.022Z,73.18
2023-03-16T06:04:08.058Z,72.42
2023-03-16T06:05:07.898Z,72.74
2023-03-16T06:06:07.911Z,72.80
2023-03-16T06:07:07.880Z,71.84
2023-03-16T06:08:07.866Z,71.70
2023-03-16T06:09:07.854Z,70.42
2023-03-16T06:10:07.844Z,69.35
2023-03-16T06:11:07.865Z,68.19
2023-03-16T06:12:07.824Z,67.43
2023-03-16T06:13:07.818Z,66.88
2023-03-16T06:14:07.803Z,65.72
2023-03-16T06:15:07.793Z,65.06
2023-03-16T06:16:07.883Z,65.03
2023-03-16T06:17:07.775Z,64.70
2023-03-16T06:18:07.761Z,63.32
2023-03-16T06:19:07.905Z,63.32
2023-03-16T06:20:07.743Z,61.88
2023-03-16T06:21:07.765Z,61.96
2023-03-16T06:22:07.775Z,62.06
2023-03-16T06:23:07.701Z,61.61
2023-03-16T06:24:07.693Z,60.77
2023-03-16T06:25:07.681Z,59.91
2023-03-16T06:26:07.687Z,59.37
2023-03-16T06:27:07.697Z,59.37
2023-03-16T06:28:07.717Z,58.73
2023-03-16T06:29:07.673Z,58.70
2023-03-16T06:30:07.629Z,57.57
2023-03-16T06:31:07.652Z,57.44
2023-03-16T06:32:07.621Z,57.31
2023-03-16T06:33:07.682Z,56.38
2023-03-16T06:34:07.588Z,57.08
2023-03-16T06:35:07.580Z,56.43
2023-03-16T06:36:07.617Z,55.28
2023-03-16T06:37:07.551Z,55.18
2023-03-16T06:38:07.544Z,54.53
2023-03-16T06:39:07.551Z,54.00
2023-03-16T06:40:07.525Z,53.80
2023-03-16T06:41:07.510Z,52.34
2023-03-16T06:42:07.514Z,52.64
2023-03-16T06:43:07.508Z,52.75
2023-03-16T06:44:07.492Z,52.83
2023-03-16T06:45:07.467Z,52.19
2023-03-16T06:46:07.493Z,51.34
2023-03-16T06:47:07.516Z,51.26
2023-03-16T06:48:07.438Z,51.04
2023-03-16T06:49:07.440Z,50.83
2023-03-16T06:50:07.424Z,50.22
2023-03-16T06:51:07.414Z,50.01
2023-03-16T06:52:07.393Z,49.89
2023-03-16T06:53:07.379Z,49.87
2023-03-16T06:54:07.377Z,48.74
2023-03-16T06:55:07.358Z,48.84
2023-03-16T06:56:07.424Z,48.82
2023-03-16T06:57:07.342Z,48.80
2023-03-16T06:58:07.331Z,47.88
2023-03-16T06:59:07.350Z,48.08
2023-03-16T07:00:07.408Z,48.14
2023-03-16T07:01:07.352Z,48.03
2023-03-16T07:02:07.285Z,47.32
2023-03-16T07:03:07.282Z,48.03
2023-03-16T07:04:07.316Z,47.22
2023-03-16T07:05:07.255Z,47.12
2023-03-16T07:06:07.253Z,48.03
2023-03-16T07:07:07.230Z,47.20
2023-03-16T07:08:07.220Z,46.67
2023-03-16T07:09:07.204Z,45.94
2023-03-16T07:10:07.201Z,45.81
2023-03-16T07:11:07.217Z,45.81
2023-03-16T07:12:07.170Z,45.06
2023-03-16T07:13:07.159Z,44.75
2023-03-16T07:14:07.149Z,44.54
2023-03-16T07:15:07.167Z,44.54
2023-03-16T07:16:07.206Z,44.45
2023-03-16T07:17:07.120Z,43.51
2023-03-16T07:18:07.105Z,43.91
2023-03-16T07:19:07.092Z,43.71
2023-03-16T07:20:07.085Z,43.59
2023-03-16T07:21:07.086Z,43.90
2023-03-16T07:22:07.064Z,43.49
2023-03-16T07:23:07.049Z,42.86
2023-03-16T07:24:07.043Z,42.94
2023-03-16T07:25:07.030Z,43.04
2023-03-16T07:26:07.137Z,42.21
2023-03-16T07:27:07.009Z,42.09
2023-03-16T07:28:07.021Z,42.19
2023-03-16T07:29:07.002Z,40.65
2023-03-16T07:30:06.983Z,40.43
2023-03-16T07:31:06.988Z,40.24
2023-03-16T07:32:07.038Z,40.02
2023-03-16T07:33:07.040Z,39.51
2023-03-16T07:34:06.958Z,40.63
2023-03-16T07:35:06.925Z,40.81
2023-03-16T07:36:07.017Z,39.78
2023-03-16T07:37:06.902Z,39.58
2023-03-16T07:38:06.893Z,39.58
2023-03-16T07:39:06.875Z,39.48
2023-03-16T07:40:06.868Z,38.85
2023-03-16T07:41:06.874Z,39.04
2023-03-16T07:42:06.860Z,38.53
2023-03-16T07:43:06.833Z,38.84
2023-03-16T07:44:06.825Z,38.73
2023-03-16T07:45:06.816Z,38.31
2023-03-16T07:46:06.905Z,38.93
2023-03-16T07:47:06.817Z,38.85
2023-03-16T07:48:06.785Z,37.96
2023-03-16T07:49:06.785Z,39.09
2023-03-16T07:50:06.760Z,38.28
2023-03-16T07:51:06.772Z,38.59
2023-03-16T07:52:06.745Z,38.35
2023-03-16T07:53:06.729Z,38.26
2023-03-16T07:54:06.734Z,38.77
2023-03-16T07:55:06.737Z,38.87
2023-03-16T07:56:06.779Z,38.57
2023-03-16T07:57:06.689Z,38.87
2023-03-16T07:58:06.675Z,38.97
2023-03-16T07:59:06.667Z,38.67
2023-03-16T08:00:06.679Z,39.19
2023-03-16T08:01:06.697Z,39.09
2023-03-16T08:02:06.695Z,38.77
2023-03-16T08:03:06.853Z,38.87
2023-03-16T08:04:06.719Z,38.77
2023-03-16T08:05:06.603Z,38.67
2023-03-16T08:06:06.712Z,38.95
2023-03-16T08:07:06.589Z,38.63
2023-03-16T08:08:06.573Z,37.92
2023-03-16T08:09:06.559Z,38.21
2023-03-16T08:10:06.555Z,37.68
2023-03-16T08:11:06.567Z,38.07
2023-03-16T08:12:06.529Z,36.55
2023-03-16T08:13:06.636Z,36.47
2023-03-16T08:14:06.520Z,36.57
2023-03-16T08:15:06.501Z,36.59
2023-03-16T08:16:06.590Z,36.90
2023-03-16T08:17:06.483Z,36.71
2023-03-16T08:18:06.479Z,36.71
2023-03-16T08:19:06.496Z,36.90
2023-03-16T08:20:06.460Z,36.90
2023-03-16T08:21:06.532Z,36.98
2023-03-16T08:22:06.450Z,37.28
2023-03-16T08:23:06.422Z,36.88
2023-03-16T08:24:06.427Z,36.07
2023-03-16T08:25:06.420Z,35.65
2023-03-16T08:26:06.397Z,35.55
2023-03-16T08:27:06.375Z,35.75
2023-03-16T08:28:06.367Z,35.92
2023-03-16T08:29:06.408Z,35.70
2023-03-16T08:30:06.353Z,35.41
2023-03-16T08:31:06.387Z,35.30
2023-03-16T08:32:06.324Z,35.50
2023-03-16T08:33:06.330Z,35.17
2023-03-16T08:34:06.303Z,35.26
2023-03-16T08:35:06.316Z,34.66
2023-03-16T08:36:06.438Z,34.54
2023-03-16T08:37:06.299Z,33.42
2023-03-16T08:38:06.263Z,33.50
2023-03-16T08:39:07.732Z,33.08
2023-03-16T08:40:06.247Z,33.79
2023-03-16T08:41:06.230Z,33.10
2023-03-16T08:42:06.223Z,32.38
2023-03-16T08:43:06.220Z,32.29
2023-03-16T08:44:06.241Z,32.71
2023-03-16T08:45:06.193Z,32.81
2023-03-16T08:46:06.247Z,33.15
2023-03-16T08:47:06.178Z,33.25
2023-03-16T08:48:06.159Z,33.75
2023-03-16T08:49:06.164Z,33.44
2023-03-16T08:50:06.148Z,33.51
2023-03-16T08:51:06.153Z,33.30
2023-03-16T08:52:06.118Z,32.48
2023-03-16T08:53:06.119Z,33.18
2023-03-16T08:54:06.113Z,33.00
2023-03-16T08:55:06.083Z,32.95
2023-03-16T08:56:06.080Z,32.96
2023-03-16T08:57:06.077Z,34.49
2023-03-16T08:58:06.061Z,33.28
2023-03-16T08:59:06.609Z,33.70
2023-03-16T09:00:06.034Z,33.59
2023-03-16T09:01:06.021Z,33.80
2023-03-16T09:02:06.063Z,34.59
2023-03-16T09:03:06.005Z,34.30
2023-03-16T09:04:06.090Z,34.20
2023-03-16T09:05:05.980Z,33.78
2023-03-16T09:06:13.644Z,33.29
2023-03-16T09:07:09.419Z,33.73
2023-03-16T09:08:05.951Z,35.08
2023-03-16T09:09:05.990Z,34.88
2023-03-16T09:10:05.936Z,35.58
2023-03-16T09:11:05.925Z,34.88
2023-03-16T09:12:05.978Z,35.28
2023-03-16T09:13:05.899Z,35.09
2023-03-16T09:14:05.888Z,35.58
2023-03-16T09:15:05.881Z,35.26
2023-03-16T09:16:05.954Z,35.16
2023-03-16T09:17:05.884Z,35.65
2023-03-16T09:18:05.849Z,35.04
2023-03-16T09:19:05.850Z,34.64
2023-03-16T09:20:21.200Z,34.54
2023-03-16T09:21:06.819Z,33.70
2023-03-16T09:22:05.843Z,34.62
2023-03-16T09:23:06.634Z,35.04
2023-03-16T09:24:05.786Z,34.75
2023-03-16T09:25:05.771Z,35.57
2023-03-16T09:26:05.777Z,35.88
2023-03-16T09:27:05.807Z,36.22
2023-03-16T09:28:05.753Z,36.21
2023-03-16T09:29:05.728Z,35.66
2023-03-16T09:30:05.720Z,34.64
2023-03-16T09:31:05.723Z,34.33
2023-03-16T09:32:05.726Z,34.55
2023-03-16T09:33:05.754Z,33.95
2023-03-16T09:34:05.679Z,33.64
2023-03-16T09:35:05.666Z,34.23
2023-03-16T09:36:05.733Z,34.54
2023-03-16T09:37:05.665Z,33.63
2023-03-16T09:38:06.787Z,34.13
2023-03-16T09:39:05.625Z,33.12
2023-03-16T09:40:10.371Z,32.60
2023-03-16T09:41:06.607Z,32.32
2023-03-16T09:42:05.632Z,33.02
2023-03-16T09:43:05.591Z,33.24
2023-03-16T09:44:05.589Z,33.34
2023-03-16T09:45:05.590Z,33.17
2023-03-16T09:46:05.735Z,33.24
2023-03-16T09:47:05.611Z,33.34
2023-03-16T09:48:05.541Z,32.52
2023-03-16T09:49:05.523Z,32.52
2023-03-16T09:50:05.585Z,32.30
2023-03-16T09:51:05.677Z,32.52
2023-03-16T09:52:05.526Z,33.12
2023-03-16T09:53:05.484Z,32.90
2023-03-16T09:54:05.491Z,32.29
2023-03-16T09:55:05.495Z,32.79
2023-03-16T09:56:05.449Z,33.21
2023-03-16T09:57:05.449Z,32.99
2023-03-16T09:58:05.435Z,31.59
2023-03-16T09:59:07.009Z,32.01
2023-03-16T10:00:05.428Z,31.70
2023-03-16T10:01:05.441Z,31.79
2023-03-16T10:02:05.417Z,33.21
2023-03-16T10:03:05.383Z,32.81
2023-03-16T10:04:05.407Z,32.70
2023-03-16T10:05:05.358Z,32.49
2023-03-16T10:06:05.347Z,31.87
2023-03-16T10:07:05.355Z,32.17
2023-03-16T10:08:05.324Z,31.53
2023-03-16T10:09:05.328Z,31.04
2023-03-16T10:10:05.343Z,32.29
2023-03-16T10:11:05.299Z,32.18
2023-03-16T10:12:05.283Z,31.67
2023-03-16T10:13:05.297Z,31.58
2023-03-16T10:14:05.265Z,31.98
2023-03-16T10:15:05.335Z,31.68
2023-03-16T10:16:05.317Z,31.98
2023-03-16T10:17:05.253Z,31.68
2023-03-16T10:18:05.229Z,31.96
2023-03-16T10:19:05.222Z,32.17
2023-03-16T10:20:05.332Z,31.06
2023-03-16T10:21:05.193Z,31.26
2023-03-16T10:22:05.194Z,31.53
2023-03-16T10:23:05.177Z,30.91
2023-03-16T10:24:05.182Z,30.51
2023-03-16T10:25:05.150Z,31.71
2023-03-16T10:26:05.171Z,30.80
2023-03-16T10:27:05.149Z,30.70
2023-03-16T10:28:05.119Z,30.41
2023-03-16T10:29:05.234Z,32.51
2023-03-16T10:30:05.121Z,30.99
2023-03-16T10:31:05.095Z,29.26
2023-03-16T10:32:05.152Z,28.77
2023-03-16T10:33:05.119Z,29.69
2023-03-16T10:34:05.063Z,28.89
2023-03-16T10:35:05.058Z,28.28
2023-03-16T10:36:05.224Z,29.61
2023-03-16T10:37:05.089Z,29.42
2023-03-16T10:38:05.022Z,28.72
2023-03-16T10:39:05.013Z,29.35
2023-03-16T10:40:05.007Z,30.88
2023-03-16T10:41:04.995Z,31.10
2023-03-16T10:42:05.034Z,32.01
2023-03-16T10:43:04.969Z,31.73
2023-03-16T10:44:04.968Z,32.56
2023-03-16T10:45:04.968Z,32.51
2023-03-16T10:46:05.019Z,33.44
2023-03-16T10:47:05.121Z,34.82
2023-03-16T10:48:04.929Z,34.83
2023-03-16T10:49:04.915Z,34.94
2023-03-16T10:50:04.904Z,34.00
2023-03-16T10:51:04.898Z,33.31
2023-03-16T10:52:04.900Z,33.54
2023-03-16T10:53:04.875Z,34.68
2023-03-16T10:54:04.870Z,35.82
2023-03-16T10:55:04.855Z,35.21
2023-03-16T10:56:04.868Z,34.83
2023-03-16T10:57:04.857Z,35.36
2023-03-16T10:58:04.864Z,35.66
2023-03-16T10:59:04.812Z,34.93
2023-03-16T11:00:04.816Z,35.86
2023-03-16T11:01:04.807Z,36.19
2023-03-16T11:02:04.884Z,36.41
2023-03-16T11:03:04.782Z,35.80
2023-03-16T11:04:04.759Z,36.43
2023-03-16T11:05:04.750Z,36.41
2023-03-16T11:06:04.737Z,37.33
2023-03-16T11:07:04.748Z,38.16
2023-03-16T11:08:04.714Z,38.57
2023-03-16T11:09:04.707Z,38.87
2023-03-16T11:10:04.697Z,40.14
2023-03-16T11:11:04.686Z,40.95
2023-03-16T11:12:04.688Z,41.16
2023-03-16T11:13:04.665Z,40.65
2023-03-16T11:14:04.679Z,41.26
2023-03-16T11:15:09.221Z,40.44
2023-03-16T11:16:05.639Z,40.75
2023-03-16T11:17:04.722Z,39.42
2023-03-16T11:18:04.609Z,38.71
2023-03-16T11:19:04.602Z,40.24
2023-03-16T11:20:04.593Z,40.05
2023-03-16T11:21:04.579Z,39.44
2023-03-16T11:22:04.583Z,40.26
2023-03-16T11:23:04.556Z,39.54
2023-03-16T11:24:04.547Z,38.95
2023-03-16T11:25:04.548Z,38.62
2023-03-16T11:26:04.566Z,39.14
2023-03-16T11:27:04.540Z,39.05
2023-03-16T11:28:04.503Z,39.54
2023-03-16T11:29:04.489Z,38.93
2023-03-16T11:30:04.503Z,39.14
2023-03-16T11:31:04.499Z,39.95
2023-03-16T11:32:04.470Z,39.44
2023-03-16T11:33:04.521Z,40.46
2023-03-16T11:34:04.439Z,39.75
2023-03-16T11:35:04.596Z,40.16
2023-03-16T11:36:04.470Z,38.50
2023-03-16T11:37:04.471Z,38.91
2023-03-16T11:38:04.394Z,37.91
2023-03-16T11:39:04.388Z,37.50
2023-03-16T11:40:04.384Z,36.47
2023-03-16T11:41:04.371Z,37.40
2023-03-16T11:42:04.374Z,37.91
2023-03-16T11:43:04.342Z,38.83
2023-03-16T11:44:04.337Z,39.14
2023-03-16T11:45:04.323Z,39.44
2023-03-16T11:46:04.458Z,39.15
2023-03-16T11:47:04.318Z,38.83
2023-03-16T11:48:04.285Z,39.26
2023-03-16T11:49:04.276Z,38.85
2023-03-16T11:50:04.274Z,38.54
2023-03-16T11:51:04.256Z,38.85
2023-03-16T11:52:04.261Z,37.52
2023-03-16T11:53:04.250Z,37.95
2023-03-16T11:54:04.240Z,38.35
2023-03-16T11:55:04.209Z,37.54
2023-03-16T11:56:04.203Z,36.61
2023-03-16T11:57:04.202Z,36.63
2023-03-16T11:58:04.180Z,37.45
2023-03-16T11:59:04.167Z,39.09
2023-03-16T12:00:04.158Z,38.68
2023-03-16T12:01:04.137Z,39.50
2023-03-16T12:02:04.195Z,40.21
2023-03-16T12:03:04.152Z,39.09
2023-03-16T12:04:04.137Z,38.76
2023-03-16T12:05:04.096Z,38.57
2023-03-16T12:06:17.069Z,37.16
2023-03-16T12:07:05.088Z,37.05
2023-03-16T12:08:04.060Z,36.98
2023-03-16T12:09:04.047Z,36.56
2023-03-16T12:10:04.040Z,38.42
2023-03-16T12:11:04.027Z,38.84
2023-03-16T12:12:04.029Z,38.42
2023-03-16T12:13:04.004Z,38.85
2023-03-16T12:14:03.990Z,37.19
2023-03-16T12:15:03.980Z,36.47
2023-03-16T12:16:04.024Z,36.07
2023-03-16T12:17:04.026Z,36.66
2023-03-16T12:18:03.975Z,37.79
2023-03-16T12:19:03.935Z,37.69
2023-03-16T12:20:03.926Z,37.99
2023-03-16T12:21:03.916Z,38.61
2023-03-16T12:22:03.902Z,39.23
2023-03-16T12:23:03.948Z,39.33
2023-03-16T12:24:03.929Z,39.12
2023-03-16T12:25:03.872Z,40.25
2023-03-16T12:26:03.862Z,40.56
2023-03-16T12:27:03.877Z,41.27
2023-03-16T12:28:03.847Z,41.99
2023-03-16T12:29:03.848Z,41.77
2023-03-16T12:30:03.914Z,41.07
2023-03-16T12:31:03.866Z,40.44
2023-03-16T12:32:03.793Z,40.13
2023-03-16T12:33:03.918Z,40.03
2023-03-16T12:34:03.801Z,39.31
2023-03-16T12:35:03.760Z,40.03
2023-03-16T12:36:03.770Z,40.54
2023-03-16T12:37:03.759Z,40.95
2023-03-16T12:38:03.766Z,39.90
2023-03-16T12:39:03.716Z,40.21
2023-03-16T12:40:03.708Z,38.98
2023-03-16T12:41:03.698Z,38.98
2023-03-16T12:42:03.690Z,40.21
2023-03-16T12:43:03.691Z,40.11
2023-03-16T12:44:03.681Z,39.39
2023-03-16T12:45:03.651Z,39.09
2023-03-16T12:46:03.838Z,39.60
2023-03-16T12:47:03.634Z,38.57
2023-03-16T12:48:03.791Z,37.96
2023-03-16T12:49:03.607Z,37.04
2023-03-16T12:50:03.615Z,38.27
2023-03-16T12:51:03.587Z,38.49
2023-03-16T12:52:03.585Z,38.20